sensor_id;sensor_type;location;lat;lon;timestamp;pressure;altitude;pressure_sealevel;temperature;humidity
64713;BME280;51140;45.340;5.980;2022-08-21T00:01:47;97603.50;;;18.79;100.00
64713;BME280;51140;45.340;5.980;2022-08-21T00:04:13;97603.09;;;18.74;100.00
64713;BME280;51140;45.340;5.980;2022-08-21T00:06:39;97602.31;;;18.64;100.00
64713;BME280;51140;45.340;5.980;2022-08-21T00:09:06;97591.47;;;18.67;100.00
64713;BME280;51140;45.340;5.980;2022-08-21T00:11:34;97592.72;;;18.54;100.00
64713;BME280;51140;45.340;5.980;2022-08-21T00:14:00;97587.16;;;18.57;100.00
64713;BME280;51140;45.340;5.980;2022-08-21T00:16:26;97579.94;;;18.59;100.00
64713;BME280;51140;45.340;5.980;2022-08-21T00:18:51;97573.53;;;18.61;100.00
64713;BME280;51140;45.340;5.980;2022-08-21T00:21:17;97572.84;;;18.59;100.00
64713;BME280;51140;45.340;5.980;2022-08-21T00:23:42;97560.94;;;18.55;100.00
64713;BME280;51140;45.340;5.980;2022-08-21T00:26:08;97572.84;;;18.59;100.00
64713;BME280;51140;45.340;5.980;2022-08-21T00:28:34;97578.41;;;18.56;100.00
64713;BME280;51140;45.340;5.980;2022-08-21T00:31:00;97572.16;;;18.57;100.00
64713;BME280;51140;45.340;5.980;2022-08-21T00:33:29;97571.78;;;18.52;100.00
64713;BME280;51140;45.340;5.980;2022-08-21T00:35:55;97576.63;;;18.47;100.00
64713;BME280;51140;45.340;5.980;2022-08-21T00:38:20;97574.69;;;18.49;100.00
64713;BME280;51140;45.340;5.980;2022-08-21T00:40:49;97573.84;;;18.48;100.00
64713;BME280;51140;45.340;5.980;2022-08-21T00:43:19;97579.13;;;18.48;100.00
64713;BME280;51140;45.340;5.980;2022-08-21T00:45:45;97582.75;;;18.47;100.00
64713;BME280;51140;45.340;5.980;2022-08-21T00:48:10;97595.25;;;18.45;100.00
64713;BME280;51140;45.340;5.980;2022-08-21T00:50:42;97594.41;;;18.45;100.00
64713;BME280;51140;45.340;5.980;2022-08-21T00:53:10;97590.50;;;18.39;100.00
64713;BME280;51140;45.340;5.980;2022-08-21T00:55:36;97584.16;;;18.42;100.00
64713;BME280;51140;45.340;5.980;2022-08-21T00:58:04;97572.19;;;18.38;100.00
64713;BME280;51140;45.340;5.980;2022-08-21T01:00:33;97577.75;;;18.35;100.00
64713;BME280;51140;45.340;5.980;2022-08-21T01:03:02;97570.53;;;18.37;100.00
64713;BME280;51140;45.340;5.980;2022-08-21T01:05:31;97579.41;;;18.36;100.00
64713;BME280;51140;45.340;5.980;2022-08-21T01:07:56;97580.97;;;18.29;100.00
64713;BME280;51140;45.340;5.980;2022-08-21T01:10:22;97582.34;;;18.23;100.00
64713;BME280;51140;45.340;5.980;2022-08-21T01:12:48;97573.91;;;18.20;100.00
64713;BME280;51140;45.340;5.980;2022-08-21T01:15:17;97572.81;;;18.12;100.00
64713;BME280;51140;45.340;5.980;2022-08-21T01:17:43;97570.03;;;18.04;100.00
64713;BME280;51140;45.340;5.980;2022-08-21T01:20:11;97573.91;;;18.10;100.00
64713;BME280;51140;45.340;5.980;2022-08-21T01:22:37;97571.13;;;18.11;100.00
64713;BME280;51140;45.340;5.980;2022-08-21T01:25:05;97570.31;;;18.01;100.00
64713;BME280;51140;45.340;5.980;2022-08-21T01:27:32;97567.53;;;17.93;100.00
64713;BME280;51140;45.340;5.980;2022-08-21T01:30:03;97561.97;;;17.96;100.00
64713;BME280;51140;45.340;5.980;2022-08-21T01:32:33;97557.41;;;17.79;100.00
64713;BME280;51140;45.340;5.980;2022-08-21T01:34:58;97541.88;;;17.76;100.00
64713;BME280;51140;45.340;5.980;2022-08-21T01:37:24;97526.34;;;17.73;100.00
64713;BME280;51140;45.340;5.980;2022-08-21T01:39:49;97520.41;;;17.71;100.00
64713;BME280;51140;45.340;5.980;2022-08-21T01:42:15;97522.19;;;17.70;100.00
64713;BME280;51140;45.340;5.980;2022-08-21T01:44:41;97503.22;;;17.67;100.00
64713;BME280;51140;45.340;5.980;2022-08-21T01:47:09;97493.91;;;17.63;100.00
64713;BME280;51140;45.340;5.980;2022-08-21T01:49:36;97482.38;;;17.64;100.00
64713;BME280;51140;45.340;5.980;2022-08-21T01:52:02;97477.38;;;17.61;100.00
64713;BME280;51140;45.340;5.980;2022-08-21T01:54:29;97469.06;;;17.65;100.00
64713;BME280;51140;45.340;5.980;2022-08-21T01:56:55;97466.59;;;17.64;100.00
64713;BME280;51140;45.340;5.980;2022-08-21T01:59:22;97456.44;;;17.59;100.00
64713;BME280;51140;45.340;5.980;2022-08-21T02:01:48;97452.31;;;17.66;100.00
64713;BME280;51140;45.340;5.980;2022-08-21T02:04:14;97450.09;;;17.71;100.00
64713;BME280;51140;45.340;5.980;2022-08-21T02:06:39;97461.47;;;17.72;100.00
64713;BME280;51140;45.340;5.980;2022-08-21T02:09:07;97470.06;;;17.74;100.00
64713;BME280;51140;45.340;5.980;2022-08-21T02:11:33;97476.72;;;17.78;100.00
64713;BME280;51140;45.340;5.980;2022-08-21T02:13:59;97476.44;;;17.81;100.00
64713;BME280;51140;45.340;5.980;2022-08-21T02:16:25;97479.63;;;17.84;100.00
64713;BME280;51140;45.340;5.980;2022-08-21T02:18:50;97490.97;;;17.85;100.00
64713;BME280;51140;45.340;5.980;2022-08-21T02:21:16;97486.81;;;17.82;100.00
64713;BME280;51140;45.340;5.980;2022-08-21T02:23:41;97493.91;;;17.82;100.00
64713;BME280;51140;45.340;5.980;2022-08-21T02:26:07;97485.47;;;17.69;100.00
64713;BME280;51140;45.340;5.980;2022-08-21T02:28:33;97480.19;;;17.69;100.00
64713;BME280;51140;45.340;5.980;2022-08-21T02:30:59;97478.53;;;17.68;100.00
64713;BME280;51140;45.340;5.980;2022-08-21T02:33:25;97476.00;;;17.66;100.00
64713;BME280;51140;45.340;5.980;2022-08-21T02:35:52;97464.09;;;17.62;100.00
64713;BME280;51140;45.340;5.980;2022-08-21T02:38:23;97456.03;;;17.54;100.00
64713;BME280;51140;45.340;5.980;2022-08-21T02:40:50;97460.34;;;17.65;100.00
64713;BME280;51140;45.340;5.980;2022-08-21T02:43:16;97464.78;;;17.64;100.00
64713;BME280;51140;45.340;5.980;2022-08-21T02:45:43;97456.03;;;17.64;100.00
64713;BME280;51140;45.340;5.980;2022-08-21T02:48:11;97458.13;;;17.50;100.00
64713;BME280;51140;45.340;5.980;2022-08-21T02:50:42;97463.78;;;17.55;100.00
64713;BME280;51140;45.340;5.980;2022-08-21T02:53:10;97456.16;;;17.52;100.00
64713;BME280;51140;45.340;5.980;2022-08-21T02:55:37;97467.94;;;17.48;100.00
64713;BME280;51140;45.340;5.980;2022-08-21T02:58:04;97475.72;;;17.40;100.00
64713;BME280;51140;45.340;5.980;2022-08-21T03:00:31;97489.03;;;17.48;100.00
64713;BME280;51140;45.340;5.980;2022-08-21T03:02:57;97481.25;;;17.37;100.00
64713;BME280;51140;45.340;5.980;2022-08-21T03:05:24;97484.59;;;17.30;100.00
64713;BME280;51140;45.340;5.980;2022-08-21T03:07:51;97482.88;;;17.19;100.00
64713;BME280;51140;45.340;5.980;2022-08-21T03:10:18;97472.78;;;17.14;100.00
64713;BME280;51140;45.340;5.980;2022-08-21T03:12:45;97467.66;;;17.13;100.00
64713;BME280;51140;45.340;5.980;2022-08-21T03:15:12;97464.03;;;17.14;100.00
64713;BME280;51140;45.340;5.980;2022-08-21T03:17:38;97466.97;;;17.20;100.00
64713;BME280;51140;45.340;5.980;2022-08-21T03:20:05;97467.53;;;17.24;100.00
64713;BME280;51140;45.340;5.980;2022-08-21T03:22:31;97471.44;;;17.30;100.00
64713;BME280;51140;45.340;5.980;2022-08-21T03:24:57;97467.69;;;17.32;100.00
64713;BME280;51140;45.340;5.980;2022-08-21T03:27:23;97472.81;;;17.34;100.00
64713;BME280;51140;45.340;5.980;2022-08-21T03:29:49;97469.34;;;17.33;100.00
64713;BME280;51140;45.340;5.980;2022-08-21T03:32:15;97470.59;;;17.29;100.00
64713;BME280;51140;45.340;5.980;2022-08-21T03:34:40;97469.91;;;17.27;100.00
64713;BME280;51140;45.340;5.980;2022-08-21T03:37:07;97467.78;;;17.21;100.00
64713;BME280;51140;45.340;5.980;2022-08-21T03:39:34;97462.09;;;17.16;100.00
64713;BME280;51140;45.340;5.980;2022-08-21T03:42:00;97461.97;;;17.08;100.00
64713;BME280;51140;45.340;5.980;2022-08-21T03:44:26;97479.69;;;17.06;100.00
64713;BME280;51140;45.340;5.980;2022-08-21T03:46:55;97483.97;;;17.07;100.00
64713;BME280;51140;45.340;5.980;2022-08-21T03:49:20;97494.66;;;17.05;100.00
64713;BME280;51140;45.340;5.980;2022-08-21T03:51:46;97489.09;;;17.08;100.00
64713;BME280;51140;45.340;5.980;2022-08-21T03:54:11;97503.50;;;17.04;100.00
64713;BME280;51140;45.340;5.980;2022-08-21T03:56:37;97514.88;;;17.05;100.00
64713;BME280;51140;45.340;5.980;2022-08-21T03:59:02;97515.84;;;17.13;100.00
64713;BME280;51140;45.340;5.980;2022-08-21T04:01:28;97515.00;;;17.13;100.00
64713;BME280;51140;45.340;5.980;2022-08-21T04:03:54;97506.69;;;17.08;100.00
64713;BME280;51140;45.340;5.980;2022-08-21T04:06:19;97519.44;;;17.03;100.00
64713;BME280;51140;45.340;5.980;2022-08-21T04:08:44;97520.78;;;16.87;100.00
64713;BME280;51140;45.340;5.980;2022-08-21T04:11:10;97530.75;;;16.84;100.00
64713;BME280;51140;45.340;5.980;2022-08-21T04:13:36;97532.41;;;16.85;100.00
64713;BME280;51140;45.340;5.980;2022-08-21T04:16:02;97540.28;;;16.85;100.00
64713;BME280;51140;45.340;5.980;2022-08-21T04:18:28;97535.81;;;16.76;100.00
64713;BME280;51140;45.340;5.980;2022-08-21T04:20:53;97540.38;;;16.74;100.00
64713;BME280;51140;45.340;5.980;2022-08-21T04:23:21;97544.50;;;16.67;100.00
64713;BME280;51140;45.340;5.980;2022-08-21T04:25:46;97544.59;;;16.65;100.00
64713;BME280;51140;45.340;5.980;2022-08-21T04:28:11;97549.69;;;16.57;100.00
64713;BME280;51140;45.340;5.980;2022-08-21T04:30:37;97551.75;;;16.53;100.00
64713;BME280;51140;45.340;5.980;2022-08-21T04:33:02;97550.78;;;16.54;100.00
64713;BME280;51140;45.340;5.980;2022-08-21T04:35:29;97550.53;;;16.37;100.00
64713;BME280;51140;45.340;5.980;2022-08-21T04:37:55;97556.63;;;16.37;100.00
64713;BME280;51140;45.340;5.980;2022-08-21T04:40:23;97558.03;;;16.41;100.00
64713;BME280;51140;45.340;5.980;2022-08-21T04:43:04;97555.06;;;16.35;100.00
64713;BME280;51140;45.340;5.980;2022-08-21T04:45:36;97557.25;;;16.29;100.00
64713;BME280;51140;45.340;5.980;2022-08-21T04:48:03;97564.91;;;16.12;100.00
64713;BME280;51140;45.340;5.980;2022-08-21T04:50:37;97560.22;;;16.15;100.00
64713;BME280;51140;45.340;5.980;2022-08-21T04:53:11;97557.84;;;16.12;100.00
64713;BME280;51140;45.340;5.980;2022-08-21T04:55:39;97553.81;;;16.08;100.00
64713;BME280;51140;45.340;5.980;2022-08-21T04:58:09;97547.34;;;16.12;100.00
64713;BME280;51140;45.340;5.980;2022-08-21T05:00:37;97546.69;;;16.20;100.00
64713;BME280;51140;45.340;5.980;2022-08-21T05:03:04;97536.25;;;16.29;100.00
64713;BME280;51140;45.340;5.980;2022-08-21T05:05:31;97522.06;;;16.42;100.00
64713;BME280;51140;45.340;5.980;2022-08-21T05:07:59;97520.97;;;16.44;100.00
64713;BME280;51140;45.340;5.980;2022-08-21T05:10:26;97510.53;;;16.33;100.00
64713;BME280;51140;45.340;5.980;2022-08-21T05:12:52;97513.84;;;16.35;100.00
64713;BME280;51140;45.340;5.980;2022-08-21T05:15:18;97518.53;;;16.32;100.00
64713;BME280;51140;45.340;5.980;2022-08-21T05:17:43;97520.22;;;16.33;100.00
64713;BME280;51140;45.340;5.980;2022-08-21T05:20:10;97525.03;;;16.27;100.00
64713;BME280;51140;45.340;5.980;2022-08-21T05:22:36;97519.25;;;16.34;100.00
64713;BME280;51140;45.340;5.980;2022-08-21T05:25:03;97521.34;;;16.40;100.00
64713;BME280;51140;45.340;5.980;2022-08-21T05:27:28;97525.28;;;16.45;100.00
64713;BME280;51140;45.340;5.980;2022-08-21T05:29:55;97523.09;;;16.50;100.00
64713;BME280;51140;45.340;5.980;2022-08-21T05:32:21;97517.44;;;16.55;100.00
64713;BME280;51140;45.340;5.980;2022-08-21T05:34:46;97507.34;;;16.60;100.00
64713;BME280;51140;45.340;5.980;2022-08-21T05:37:12;97501.81;;;16.63;100.00
64713;BME280;51140;45.340;5.980;2022-08-21T05:39:37;97499.38;;;16.71;100.00
64713;BME280;51140;45.340;5.980;2022-08-21T05:42:03;97496.06;;;16.69;100.00
64713;BME280;51140;45.340;5.980;2022-08-21T05:44:28;97500.47;;;16.69;100.00
64713;BME280;51140;45.340;5.980;2022-08-21T05:46:53;97501.34;;;16.79;100.00
64713;BME280;51140;45.340;5.980;2022-08-21T05:49:19;97509.22;;;16.79;100.00
64713;BME280;51140;45.340;5.980;2022-08-21T05:51:44;97503.41;;;16.75;100.00
64713;BME280;51140;45.340;5.980;2022-08-21T05:54:10;97517.66;;;16.73;100.00
64713;BME280;51140;45.340;5.980;2022-08-21T05:56:36;97520.81;;;16.67;100.00
64713;BME280;51140;45.340;5.980;2022-08-21T05:59:02;97520.16;;;16.74;100.00
64713;BME280;51140;45.340;5.980;2022-08-21T06:01:28;97525.94;;;16.68;100.00
64713;BME280;51140;45.340;5.980;2022-08-21T06:03:53;97559.03;;;16.71;100.00
64713;BME280;51140;45.340;5.980;2022-08-21T06:06:19;97558.59;;;16.66;100.00
64713;BME280;51140;45.340;5.980;2022-08-21T06:08:44;97556.06;;;16.64;100.00
64713;BME280;51140;45.340;5.980;2022-08-21T06:11:10;97548.59;;;16.59;100.00
64713;BME280;51140;45.340;5.980;2022-08-21T06:13:37;97549.41;;;16.60;100.00
64713;BME280;51140;45.340;5.980;2022-08-21T06:16:12;97547.50;;;16.62;100.00
64713;BME280;51140;45.340;5.980;2022-08-21T06:18:38;97553.84;;;16.59;100.00
64713;BME280;51140;45.340;5.980;2022-08-21T06:21:04;97544.16;;;16.60;100.00
64713;BME280;51140;45.340;5.980;2022-08-21T06:23:30;97569.56;;;16.50;100.00
64713;BME280;51140;45.340;5.980;2022-08-21T06:25:56;97611.25;;;16.54;100.00
64713;BME280;51140;45.340;5.980;2022-08-21T06:28:21;97621.63;;;16.56;100.00
64713;BME280;51140;45.340;5.980;2022-08-21T06:30:47;97630.56;;;16.44;100.00
64713;BME280;51140;45.340;5.980;2022-08-21T06:33:12;97666.06;;;16.38;100.00
64713;BME280;51140;45.340;5.980;2022-08-21T06:35:37;97659.22;;;16.47;100.00
64713;BME280;51140;45.340;5.980;2022-08-21T06:38:03;97642.34;;;16.49;100.00
64713;BME280;51140;45.340;5.980;2022-08-21T06:40:29;97652.78;;;16.40;100.00
64713;BME280;51140;45.340;5.980;2022-08-21T06:42:56;97658.03;;;16.40;100.00
64713;BME280;51140;45.340;5.980;2022-08-21T06:45:23;97687.69;;;16.42;100.00
64713;BME280;51140;45.340;5.980;2022-08-21T06:47:49;97707.97;;;16.40;100.00
64713;BME280;51140;45.340;5.980;2022-08-21T06:50:14;98213.97;;;16.47;100.00
64713;BME280;51140;45.340;5.980;2022-08-21T06:52:40;98310.22;;;16.49;100.00
64713;BME280;51140;45.340;5.980;2022-08-21T06:55:07;98427.03;;;16.58;100.00
64713;BME280;51140;45.340;5.980;2022-08-21T06:57:33;98517.84;;;16.51;100.00
64713;BME280;51140;45.340;5.980;2022-08-21T06:59:58;98511.72;;;16.63;100.00
64713;BME280;51140;45.340;5.980;2022-08-21T07:02:24;98456.69;;;16.60;100.00
64713;BME280;51140;45.340;5.980;2022-08-21T07:04:50;98477.22;;;16.68;100.00
64713;BME280;51140;45.340;5.980;2022-08-21T07:07:16;98443.22;;;16.65;100.00
64713;BME280;51140;45.340;5.980;2022-08-21T07:09:43;98318.09;;;16.73;100.00
64713;BME280;51140;45.340;5.980;2022-08-21T07:12:09;98234.09;;;16.83;100.00
64713;BME280;51140;45.340;5.980;2022-08-21T07:14:35;98155.28;;;16.92;100.00
64713;BME280;51140;45.340;5.980;2022-08-21T07:17:00;98064.25;;;17.01;100.00
64713;BME280;51140;45.340;5.980;2022-08-21T07:19:26;98042.63;;;16.98;100.00
64713;BME280;51140;45.340;5.980;2022-08-21T07:21:54;98024.16;;;17.09;100.00
64713;BME280;51140;45.340;5.980;2022-08-21T07:24:22;98004.75;;;17.21;100.00
64713;BME280;51140;45.340;5.980;2022-08-21T07:26:47;97979.25;;;17.33;100.00
64713;BME280;51140;45.340;5.980;2022-08-21T07:29:12;97923.97;;;17.33;100.00
64713;BME280;51140;45.340;5.980;2022-08-21T07:31:38;97909.19;;;17.41;100.00
64713;BME280;51140;45.340;5.980;2022-08-21T07:34:03;97873.16;;;17.42;100.00
64713;BME280;51140;45.340;5.980;2022-08-21T07:36:29;97844.94;;;17.53;100.00
64713;BME280;51140;45.340;5.980;2022-08-21T07:38:54;97841.78;;;17.60;100.00
64713;BME280;51140;45.340;5.980;2022-08-21T07:41:23;97824.94;;;17.62;100.00
64713;BME280;51140;45.340;5.980;2022-08-21T07:43:49;97802.13;;;17.72;100.00
64713;BME280;51140;45.340;5.980;2022-08-21T07:46:14;97786.34;;;17.82;100.00
64713;BME280;51140;45.340;5.980;2022-08-21T07:48:40;97771.25;;;17.84;100.00
64713;BME280;51140;45.340;5.980;2022-08-21T07:51:08;97760.28;;;17.89;100.00
64713;BME280;51140;45.340;5.980;2022-08-21T07:53:35;97765.28;;;17.82;100.00
64713;BME280;51140;45.340;5.980;2022-08-21T07:56:01;97731.72;;;17.84;100.00
64713;BME280;51140;45.340;5.980;2022-08-21T07:58:26;97733.72;;;18.01;100.00
64713;BME280;51140;45.340;5.980;2022-08-21T08:00:51;97719.44;;;18.13;100.00
64713;BME280;51140;45.340;5.980;2022-08-21T08:03:17;97672.69;;;18.25;100.00
64713;BME280;51140;45.340;5.980;2022-08-21T08:05:42;97684.34;;;18.23;100.00
64713;BME280;51140;45.340;5.980;2022-08-21T08:08:08;97674.91;;;18.30;100.00
64713;BME280;51140;45.340;5.980;2022-08-21T08:10:33;97654.09;;;18.46;100.00
64713;BME280;51140;45.340;5.980;2022-08-21T08:12:59;97634.81;;;18.45;100.00
64713;BME280;51140;45.340;5.980;2022-08-21T08:15:26;97602.13;;;18.75;100.00
64713;BME280;51140;45.340;5.980;2022-08-21T08:17:52;97564.63;;;19.36;100.00
64713;BME280;51140;45.340;5.980;2022-08-21T08:20:19;97561.06;;;19.55;100.00
64713;BME280;51140;45.340;5.980;2022-08-21T08:22:45;97557.00;;;19.79;100.00
64713;BME280;51140;45.340;5.980;2022-08-21T08:25:13;97540.22;;;21.09;100.00
64713;BME280;51140;45.340;5.980;2022-08-21T08:27:39;97593.53;;;22.07;100.00
64713;BME280;51140;45.340;5.980;2022-08-21T08:30:06;97646.59;;;22.31;100.00
64713;BME280;51140;45.340;5.980;2022-08-21T08:32:32;97730.84;;;23.51;100.00
64713;BME280;51140;45.340;5.980;2022-08-21T08:34:57;97741.41;;;22.96;100.00
64713;BME280;51140;45.340;5.980;2022-08-21T08:37:22;97753.78;;;24.38;100.00
64713;BME280;51140;45.340;5.980;2022-08-21T08:39:48;97827.94;;;25.49;100.00
64713;BME280;51140;45.340;5.980;2022-08-21T08:42:16;97914.66;;;27.15;100.00
64713;BME280;51140;45.340;5.980;2022-08-21T08:44:45;97967.63;;;26.91;100.00
64713;BME280;51140;45.340;5.980;2022-08-21T08:47:15;97972.81;;;27.50;100.00
64713;BME280;51140;45.340;5.980;2022-08-21T08:49:49;98038.13;;;28.96;100.00
64713;BME280;51140;45.340;5.980;2022-08-21T08:55:19;98094.91;;;28.51;100.00
64713;BME280;51140;45.340;5.980;2022-08-21T08:57:47;98092.41;;;29.40;100.00
64713;BME280;51140;45.340;5.980;2022-08-21T09:00:16;98119.31;;;30.07;100.00
64713;BME280;51140;45.340;5.980;2022-08-21T09:02:45;98087.28;;;30.06;100.00
64713;BME280;51140;45.340;5.980;2022-08-21T09:05:30;98130.69;;;31.15;100.00
64713;BME280;51140;45.340;5.980;2022-08-21T09:08:11;98153.22;;;31.47;100.00
64713;BME280;51140;45.340;5.980;2022-08-21T09:10:48;98163.97;;;31.47;100.00
64713;BME280;51140;45.340;5.980;2022-08-21T09:13:44;98175.28;;;31.82;100.00
64713;BME280;51140;45.340;5.980;2022-08-21T09:16:15;98157.16;;;31.96;100.00
64713;BME280;51140;45.340;5.980;2022-08-21T09:27:15;98227.06;;;32.67;100.00
64713;BME280;51140;45.340;5.980;2022-08-21T09:29:43;98240.09;;;32.83;100.00
64713;BME280;51140;45.340;5.980;2022-08-21T09:32:21;98213.03;;;32.20;100.00
64713;BME280;51140;45.340;5.980;2022-08-21T09:37:33;98191.91;;;32.55;100.00
64713;BME280;51140;45.340;5.980;2022-08-21T09:40:01;98220.22;;;33.21;100.00
64713;BME280;51140;45.340;5.980;2022-08-21T09:42:31;98237.13;;;33.78;100.00
64713;BME280;51140;45.340;5.980;2022-08-21T09:45:25;98236.38;;;33.27;100.00
64713;BME280;51140;45.340;5.980;2022-08-21T09:47:51;98246.94;;;33.54;100.00
64713;BME280;51140;45.340;5.980;2022-08-21T09:50:21;98250.25;;;33.74;100.00
64713;BME280;51140;45.340;5.980;2022-08-21T09:52:51;98237.16;;;33.35;100.00
64713;BME280;51140;45.340;5.980;2022-08-21T09:55:21;98246.78;;;32.67;100.00
64713;BME280;51140;45.340;5.980;2022-08-21T09:58:07;98253.72;;;33.13;100.00
64713;BME280;51140;45.340;5.980;2022-08-21T10:00:34;98247.78;;;32.73;100.00
64713;BME280;51140;45.340;5.980;2022-08-21T10:05:39;98247.06;;;32.91;100.00
64713;BME280;51140;45.340;5.980;2022-08-21T10:08:04;98255.13;;;33.22;100.00
64713;BME280;51140;45.340;5.980;2022-08-21T10:10:35;98251.75;;;33.27;100.00
64713;BME280;51140;45.340;5.980;2022-08-21T10:13:22;98260.09;;;33.19;100.00
64713;BME280;51140;45.340;5.980;2022-08-21T10:16:08;98253.03;;;33.24;100.00
64713;BME280;51140;45.340;5.980;2022-08-21T10:24:29;98229.47;;;32.05;100.00
64713;BME280;51140;45.340;5.980;2022-08-21T10:37:52;98164.72;;;29.48;100.00
64713;BME280;51140;45.340;5.980;2022-08-21T10:40:24;98085.47;;;28.83;100.00
64713;BME280;51140;45.340;5.980;2022-08-21T10:46:10;98090.38;;;28.51;100.00
64713;BME280;51140;45.340;5.980;2022-08-21T10:51:40;98122.72;;;28.78;100.00
64713;BME280;51140;45.340;5.980;2022-08-21T10:54:12;98113.69;;;28.51;100.00
64713;BME280;51140;45.340;5.980;2022-08-21T10:56:43;98081.19;;;28.88;100.00
64713;BME280;51140;45.340;5.980;2022-08-21T11:01:47;98098.22;;;28.81;100.00
64713;BME280;51140;45.340;5.980;2022-08-21T11:04:25;98087.72;;;28.51;100.00
64713;BME280;51140;45.340;5.980;2022-08-21T11:07:00;98090.03;;;28.33;100.00
64713;BME280;51140;45.340;5.980;2022-08-21T11:09:27;98072.16;;;28.68;100.00
64713;BME280;51140;45.340;5.980;2022-08-21T11:12:05;98063.44;;;28.31;100.00
64713;BME280;51140;45.340;5.980;2022-08-21T11:15:05;98031.03;;;28.05;100.00
64713;BME280;51140;45.340;5.980;2022-08-21T11:18:02;98036.13;;;28.00;100.00
64713;BME280;51140;45.340;5.980;2022-08-21T11:20:34;98041.63;;;28.13;100.00
64713;BME280;51140;45.340;5.980;2022-08-21T11:23:11;98011.47;;;28.26;100.00
64713;BME280;51140;45.340;5.980;2022-08-21T11:25:51;97983.38;;;27.58;100.00
64713;BME280;51140;45.340;5.980;2022-08-21T11:28:22;97975.03;;;27.82;100.00
64713;BME280;51140;45.340;5.980;2022-08-21T11:37:54;97931.81;;;27.42;100.00
64713;BME280;51140;45.340;5.980;2022-08-21T11:42:35;97920.38;;;27.55;100.00
64713;BME280;51140;45.340;5.980;2022-08-21T11:45:23;97930.16;;;27.41;100.00
64713;BME280;51140;45.340;5.980;2022-08-21T11:50:40;97875.44;;;27.44;100.00
64713;BME280;51140;45.340;5.980;2022-08-21T11:53:14;97909.88;;;27.54;100.00
64713;BME280;51140;45.340;5.980;2022-08-21T11:55:50;97921.44;;;27.75;100.00
64713;BME280;51140;45.340;5.980;2022-08-21T11:58:29;97909.50;;;27.57;100.00
64713;BME280;51140;45.340;5.980;2022-08-21T12:01:04;97850.78;;;27.70;100.00
64713;BME280;51140;45.340;5.980;2022-08-21T12:03:34;97913.59;;;27.74;100.00
64713;BME280;51140;45.340;5.980;2022-08-21T12:06:05;97922.34;;;27.89;100.00
64713;BME280;51140;45.340;5.980;2022-08-21T12:08:34;97926.44;;;27.85;100.00
64713;BME280;51140;45.340;5.980;2022-08-21T12:11:07;97917.16;;;27.81;100.00
64713;BME280;51140;45.340;5.980;2022-08-21T12:13:39;97899.56;;;28.00;100.00
64713;BME280;51140;45.340;5.980;2022-08-21T12:16:11;97937.97;;;28.07;100.00
64713;BME280;51140;45.340;5.980;2022-08-21T12:18:37;97939.88;;;28.20;100.00
64713;BME280;51140;45.340;5.980;2022-08-21T12:21:27;97922.09;;;28.40;100.00
64713;BME280;51140;45.340;5.980;2022-08-21T12:26:52;97958.47;;;28.49;100.00
64713;BME280;51140;45.340;5.980;2022-08-21T12:29:23;97900.19;;;28.64;100.00
64713;BME280;51140;45.340;5.980;2022-08-21T12:31:57;97942.91;;;28.73;100.00
64713;BME280;51140;45.340;5.980;2022-08-21T12:34:26;97942.88;;;28.66;100.00
64713;BME280;51140;45.340;5.980;2022-08-21T12:37:13;97980.41;;;28.73;100.00
64713;BME280;51140;45.340;5.980;2022-08-21T12:39:44;97974.97;;;28.53;100.00
64713;BME280;51140;45.340;5.980;2022-08-21T12:42:27;97941.84;;;28.67;100.00
64713;BME280;51140;45.340;5.980;2022-08-21T12:44:58;97922.22;;;28.60;100.00
64713;BME280;51140;45.340;5.980;2022-08-21T12:53:05;97937.47;;;28.59;100.00
64713;BME280;51140;45.340;5.980;2022-08-21T12:55:33;97991.47;;;28.56;100.00
64713;BME280;51140;45.340;5.980;2022-08-21T12:57:59;97974.09;;;28.46;100.00
64713;BME280;51140;45.340;5.980;2022-08-21T13:00:27;97970.47;;;28.60;100.00
64713;BME280;51140;45.340;5.980;2022-08-21T13:02:54;97939.47;;;28.44;100.00
64713;BME280;51140;45.340;5.980;2022-08-21T13:05:36;97910.75;;;28.79;100.00
64713;BME280;51140;45.340;5.980;2022-08-21T13:08:06;97999.69;;;28.83;100.00
64713;BME280;51140;45.340;5.980;2022-08-21T13:10:34;97962.41;;;28.88;100.00
64713;BME280;51140;45.340;5.980;2022-08-21T13:13:04;97990.25;;;28.87;100.00
64713;BME280;51140;45.340;5.980;2022-08-21T13:15:36;97972.19;;;28.74;100.00
64713;BME280;51140;45.340;5.980;2022-08-21T13:18:04;97999.34;;;28.64;100.00
64713;BME280;51140;45.340;5.980;2022-08-21T13:20:35;97988.59;;;28.58;100.00
64713;BME280;51140;45.340;5.980;2022-08-21T13:23:18;97984.00;;;28.45;100.00
64713;BME280;51140;45.340;5.980;2022-08-21T13:25:44;97984.22;;;28.50;100.00
64713;BME280;51140;45.340;5.980;2022-08-21T13:28:11;97989.75;;;28.42;100.00
64713;BME280;51140;45.340;5.980;2022-08-21T13:30:48;97956.69;;;28.35;100.00
64713;BME280;51140;45.340;5.980;2022-08-21T13:33:16;97991.16;;;28.17;100.00
64713;BME280;51140;45.340;5.980;2022-08-21T13:38:28;97977.91;;;28.30;100.00
64713;BME280;51140;45.340;5.980;2022-08-21T13:40:57;98008.78;;;28.04;100.00
64713;BME280;51140;45.340;5.980;2022-08-21T13:43:28;97993.56;;;28.05;100.00
64713;BME280;51140;45.340;5.980;2022-08-21T13:45:55;97975.25;;;28.36;100.00
64713;BME280;51140;45.340;5.980;2022-08-21T13:48:23;97968.44;;;28.68;100.00
64713;BME280;51140;45.340;5.980;2022-08-21T13:50:50;97982.56;;;28.84;100.00
64713;BME280;51140;45.340;5.980;2022-08-21T13:53:28;98003.25;;;28.90;100.00
64713;BME280;51140;45.340;5.980;2022-08-21T13:55:55;97999.94;;;28.88;100.00
64713;BME280;51140;45.340;5.980;2022-08-21T13:58:44;98006.44;;;28.79;100.00
64713;BME280;51140;45.340;5.980;2022-08-21T14:04:17;98009.63;;;28.89;100.00
64713;BME280;51140;45.340;5.980;2022-08-21T14:06:44;98008.59;;;28.55;100.00